Key Light — 3EYG2 — position and weather

sailwx.info

Track history (hours):
 
Tides and Currents Weather Stations Pressure Air Temp Water Temp Dewpoint Dewpoint Depression Visibility Wind Speed Wind Dir Waves Ship Positions

Key Light

Last reported at 2017-Dec-16 20:57 UTC. Time now 2017-Dec-17 04:24 UTC.
Position N 55°48' E 016°49'.

Length 229 m; draft 7.5 m.

Type: Cargo ship. MMSI: 357152000.

Date/timePositionNaut miles runAvg speedWind from/ knotsBaromVisibWave heightAir tempDewpointWater temp
2017-Dec-16 20:57N 55°48' E 016°49'614.1
2017-Dec-16 20:30N 55°46' E 016°38'714.1
2017-Dec-16 20:00N 55°44' E 016°26'714.1
2017-Dec-16 19:30N 55°43' E 016°14'714.2
2017-Dec-16 19:00N 55°41' E 016°02'714.0
2017-Dec-16 18:30N 55°39' E 015°50'714.1
2017-Dec-16 18:00N 55°37' E 015°38'714.2
2017-Dec-16 17:30N 55°35' E 015°26'714.3
2017-Dec-16 17:00N 55°33' E 015°14'714.4
2017-Dec-16 16:30N 55°30' E 015°02'814.3
2017-Dec-16 15:58N 55°27' E 014°49'714.3
2017-Dec-16 15:30N 55°24' E 014°39'714.0
2017-Dec-16 15:00N 55°19' E 014°31'713.7
2017-Dec-16 14:30N 55°14' E 014°23'713.4
2017-Dec-16 14:01N 55°09' E 014°14'1014.7
2017-Dec-16 13:20N 55°10' E 013°57'1114.8
2017-Dec-16 12:36N 55°11' E 013°38'115.2
2017-Dec-16 12:30N 55°12' E 013°36'815.1
2017-Dec-16 12:00N 55°12' E 013°23'714.5
2017-Dec-16 11:30N 55°13' E 013°10'714.2
2017-Dec-16 11:00N 55°14' E 012°57'714.6
2017-Dec-16 10:30N 55°16' E 012°45'612.1
2017-Dec-16 10:00N 55°21' E 012°39'713.3
2017-Dec-16 09:30N 55°28' E 012°41'510.2
2017-Dec-16 09:00N 55°33' E 012°42'5 9.2
2017-Dec-16 08:30N 55°37' E 012°42'510.6
2017-Dec-16 08:00N 55°42' E 012°41'713.6
2017-Dec-16 07:31N 55°49' E 012°42'713.8
2017-Dec-16 07:00N 55°56' E 012°39'713.6
2017-Dec-16 06:31N 56°03' E 012°39'510.5
2017-Dec-16 06:01N 56°06' E 012°32'510.9
2017-Dec-16 05:31N 56°10' E 012°24'3 6.9
2017-Dec-16 05:01N 56°12' E 012°19'3 6.1
2017-Dec-16 04:31N 56°13' E 012°15'3 6.1
2017-Dec-16 04:00N 56°15' E 012°10'3 5.9
2017-Dec-16 03:30N 56°17' E 012°06'3313.7
2017-Dec-16 01:05N 56°49' E 011°50'414.3
2017-Dec-16 00:49N 56°53' E 011°48'414.0
2017-Dec-16 00:30N 56°57' E 011°46'713.9
2017-Dec-16 00:00N 57°03' E 011°41'713.8
2017-Dec-15 23:30N 57°10' E 011°37'714.0
2017-Dec-15 23:01N 57°16' E 011°31'713.8
2017-Dec-15 22:30N 57°22' E 011°27'713.5
2017-Dec-15 22:00N 57°29' E 011°22'713.7
2017-Dec-15 21:30N 57°33' E 011°13'714.2
2017-Dec-15 21:00N 57°38' E 011°03'714.2
2017-Dec-15 20:30N 57°43' E 010°53'713.9
2017-Dec-15 20:00N 57°47' E 010°42'815.0
2017-Dec-15 19:30N 57°46' E 010°28'715.0
2017-Dec-15 19:00N 57°45' E 010°14'14014.0
2017-Dec-15 09:02N 55°57' E 007°32'013.9
2017-Dec-15 09:00N 55°56' E 007°32'714.0
2017-Dec-15 08:30N 55°50' E 007°27'714.3
2017-Dec-15 08:00N 55°43' E 007°23'714.3
2017-Dec-15 07:31N 55°36' E 007°22'714.4
2017-Dec-15 07:00N 55°29' E 007°24'713.8
2017-Dec-15 06:30N 55°22' E 007°27'713.6
2017-Dec-15 06:00N 55°15' E 007°28'713.6
2017-Dec-15 05:30N 55°09' E 007°29'713.7
2017-Dec-15 05:01N 55°02' E 007°30'713.9
2017-Dec-15 04:31N 54°55' E 007°31'714.0
2017-Dec-15 04:00N 54°48' E 007°32'4213.9
2017-Dec-15 01:00N 54°07' E 007°49'714.2
2017-Dec-15 00:30N 54°05' E 007°60'8 1.3
2017-Dec-14 18:30N 54°02' E 008°12'0 0.0
2017-Dec-14 18:00N 54°02' E 008°12'0 0.1
2017-Dec-14 17:30N 54°02' E 008°12'1 2.5
2017-Dec-14 17:00N 54°02' E 008°14'3 6.7
2017-Dec-14 16:30N 53°60' E 008°19'612.9
2017-Dec-14 16:00N 53°59' E 008°30'1313.2
2017-Dec-14 15:00N 53°51' E 008°47'816.1
2017-Dec-14 14:30N 53°51' E 009°01'612.6
2017-Dec-14 14:00N 53°53' E 009°11'612.2
2017-Dec-14 13:30N 53°50' E 009°21'612.6
2017-Dec-14 13:00N 53°45' E 009°25'611.1
2017-Dec-14 12:30N 53°40' E 009°31'510.0
2017-Dec-14 12:00N 53°36' E 009°36'4 8.3
2017-Dec-14 11:30N 53°34' E 009°42'5 9.1
2017-Dec-14 11:00N 53°33' E 009°49'4 7.1
2017-Dec-14 10:31N 53°33' E 009°55'2 3.4
2017-Dec-14 10:00N 53°31' E 009°56'0 0.1
2017-Dec-14 09:29N 53°31' E 009°56'0 0.0
2017-Dec-14 08:59N 53°31' E 009°56'0 0.0
2017-Dec-14 08:29N 53°31' E 009°56'0 0.0
2017-Dec-14 07:59N 53°31' E 009°56'0 0.0
2017-Dec-14 07:29N 53°31' E 009°56'0 0.0
2017-Dec-14 06:59N 53°31' E 009°56'0 0.0
2017-Dec-14 06:29N 53°31' E 009°56'0 0.0
2017-Dec-14 05:59N 53°31' E 009°56'0 0.0
2017-Dec-14 05:29N 53°31' E 009°56'0 0.0
2017-Dec-14 04:59N 53°31' E 009°56'0 0.0
2017-Dec-14 04:29N 53°31' E 009°56'0 0.0
2017-Dec-14 03:59N 53°31' E 009°56'0 0.0
2017-Dec-14 03:29N 53°31' E 009°56'0 0.0
2017-Dec-14 02:59N 53°31' E 009°56'0 0.0
2017-Dec-14 02:29N 53°31' E 009°56'0 0.0
2017-Dec-14 01:59N 53°31' E 009°56'0 0.0
2017-Dec-14 01:29N 53°31' E 009°56'0 0.0
2017-Dec-14 00:59N 53°31' E 009°56'0 0.0
2017-Dec-14 00:29N 53°31' E 009°56'0 0.0
2017-Dec-13 23:59N 53°31' E 009°56'0 0.0
2017-Dec-13 23:29N 53°31' E 009°56'0 0.0
2017-Dec-13 22:59N 53°31' E 009°56'0 0.0
2017-Dec-13 22:29N 53°31' E 009°56'0 0.0
2017-Dec-13 21:59N 53°31' E 009°56'0 0.0
2017-Dec-13 21:29N 53°31' E 009°56'0 0.0
2017-Dec-13 20:59N 53°31' E 009°56'0 0.0
2017-Dec-13 20:29N 53°31' E 009°56'0 0.0
2017-Dec-13 19:59N 53°31' E 009°56'0 0.0
2017-Dec-13 19:29N 53°31' E 009°56'0 0.0
2017-Dec-13 18:59N 53°31' E 009°56'0 0.0
2017-Dec-13 18:29N 53°31' E 009°56'0 0.0
2017-Dec-13 17:59N 53°31' E 009°56'0 0.0
2017-Dec-13 17:29N 53°31' E 009°56'0 0.0
2017-Dec-13 16:59N 53°31' E 009°56'0 0.0
2017-Dec-13 16:29N 53°31' E 009°56'0 0.0
2017-Dec-13 15:59N 53°31' E 009°56'0 0.0
2017-Dec-13 15:29N 53°31' E 009°56'0 0.0
2017-Dec-13 14:59N 53°31' E 009°56'0 0.0
2017-Dec-13 14:29N 53°31' E 009°56'0 0.0
2017-Dec-13 13:59N 53°31' E 009°56'0 0.0
2017-Dec-13 13:29N 53°31' E 009°56'0 0.0
2017-Dec-13 12:59N 53°31' E 009°56'0 0.0
2017-Dec-13 12:29N 53°31' E 009°56'0 0.0
2017-Dec-13 11:59N 53°31' E 009°56'0 0.0
2017-Dec-13 11:29N 53°31' E 009°56'0 0.0
2017-Dec-13 10:59N 53°31' E 009°56'0 0.0
2017-Dec-13 10:29N 53°31' E 009°56'0 0.0
2017-Dec-13 09:59N 53°31' E 009°56'0 0.0
2017-Dec-13 09:29N 53°31' E 009°56'0 0.0
2017-Dec-13 08:59N 53°31' E 009°56'0 0.0
2017-Dec-13 08:29N 53°31' E 009°56'0 0.0
2017-Dec-13 07:59N 53°31' E 009°56'0 0.0
2017-Dec-13 07:29N 53°31' E 009°56'0 0.0
2017-Dec-13 06:59N 53°31' E 009°56'0 0.0
2017-Dec-13 06:29N 53°31' E 009°56'0 0.0
2017-Dec-13 05:59N 53°31' E 009°56'0 0.0
2017-Dec-13 05:29N 53°31' E 009°56'0 0.0
2017-Dec-13 04:59N 53°31' E 009°56'0 0.0
2017-Dec-13 04:29N 53°31' E 009°56'0 0.0
2017-Dec-13 03:59N 53°31' E 009°56'0 0.0
2017-Dec-13 03:29N 53°31' E 009°56'0 0.0
2017-Dec-13 02:59N 53°31' E 009°56'0 0.0
2017-Dec-13 02:29N 53°31' E 009°56'0 0.0
2017-Dec-13 01:59N 53°31' E 009°56'0 0.0
2017-Dec-13 01:29N 53°31' E 009°56'0 0.0
2017-Dec-13 00:59N 53°31' E 009°56'0 0.0
2017-Dec-13 00:29N 53°31' E 009°56'0 0.0
2017-Dec-12 23:59N 53°31' E 009°56'0 0.0
2017-Dec-12 23:29N 53°31' E 009°56'0 0.0
2017-Dec-12 22:59N 53°31' E 009°56'0 0.0
2017-Dec-12 22:29N 53°31' E 009°56'0 0.0
2017-Dec-12 21:59N 53°31' E 009°56'0 0.0
2017-Dec-12 21:29N 53°31' E 009°56'0 0.0
2017-Dec-12 20:59N 53°31' E 009°56'0 0.0
2017-Dec-12 20:29N 53°31' E 009°56'0 0.0
2017-Dec-12 19:59N 53°31' E 009°56'0 0.0
2017-Dec-12 19:29N 53°31' E 009°56'0 0.0
2017-Dec-12 18:59N 53°31' E 009°56'0 0.0
2017-Dec-12 18:29N 53°31' E 009°56'0 0.0
2017-Dec-12 17:59N 53°31' E 009°56'0 0.0
2017-Dec-12 17:29N 53°31' E 009°56'0 0.0
2017-Dec-12 16:59N 53°31' E 009°56'0 0.0
2017-Dec-12 16:29N 53°31' E 009°56'0 0.0
2017-Dec-12 15:59N 53°31' E 009°56'0 0.0
2017-Dec-12 15:29N 53°31' E 009°56'0 0.0
2017-Dec-12 14:59N 53°31' E 009°56'0 0.0
2017-Dec-12 14:29N 53°31' E 009°56'0 0.0
2017-Dec-12 13:59N 53°31' E 009°56'0 0.0
2017-Dec-12 13:29N 53°31' E 009°56'0 0.0
2017-Dec-12 12:59N 53°31' E 009°56'0 0.0
2017-Dec-12 12:29N 53°31' E 009°56'0 0.0
2017-Dec-12 11:59N 53°31' E 009°56'0 0.0
2017-Dec-12 11:29N 53°31' E 009°56'0 0.0
2017-Dec-12 10:59N 53°31' E 009°56'0 0.0
2017-Dec-12 10:29N 53°31' E 009°56'0 0.0
2017-Dec-12 09:59N 53°31' E 009°56'1 1.4
2017-Dec-12 09:30N 53°32' E 009°56'2 4.9
2017-Dec-12 09:00N 53°33' E 009°53'4 8.1
2017-Dec-12 08:31N 53°34' E 009°46'611.7
2017-Dec-12 08:01N 53°35' E 009°37'612.0
2017-Dec-12 07:31N 53°40' E 009°31'611.6
2017-Dec-12 07:00N 53°45' E 009°25'611.3
2017-Dec-12 06:30N 53°50' E 009°21'611.4
2017-Dec-12 06:00N 53°53' E 009°13'510.9
2017-Dec-12 05:30N 53°52' E 009°03'612.6
2017-Dec-12 05:00N 53°50' E 008°53'612.8
2017-Dec-12 04:30N 53°53' E 008°43'713.5
2017-Dec-12 04:00N 53°58' E 008°35'713.5
2017-Dec-12 03:30N 53°59' E 008°24'612.4
2017-Dec-12 03:00N 53°60' E 008°13'611.3
2017-Dec-12 02:30N 53°59' E 008°04'4 7.2
2017-Dec-12 02:00N 53°59' E 007°58'0 0.9
2017-Dec-12 01:30N 53°60' E 007°58'0 0.6
2017-Dec-12 01:00N 54°00' E 007°57'2 4.0
2017-Dec-12 00:30N 54°02' E 007°55'4 7.1
2017-Dec-12 00:00N 54°04' E 007°50'4 5.5
2017-Dec-11 23:21N 54°04' E 007°44'0 0.0
2017-Dec-11 20:46N 54°04' E 007°44'0 0.0
2017-Dec-11 15:58N 54°04' E 007°44'2 3.7
2017-Dec-11 15:30N 54°05' E 007°42'34 8.3
2017-Dec-11 11:21N 54°33' E 007°07'511.0
2017-Dec-11 10:53N 54°37' E 007°03'410.9
2017-Dec-11 10:30N 54°41' E 007°00'510.7
2017-Dec-11 10:00N 54°46' E 006°56'510.6
2017-Dec-11 09:30N 54°51' E 006°52'510.5
2017-Dec-11 09:00N 54°56' E 006°49'510.5
2017-Dec-11 08:30N 55°01' E 006°47'510.5
2017-Dec-11 08:00N 55°06' E 006°44'510.4
2017-Dec-11 07:30N 55°11' E 006°42'510.3
2017-Dec-11 07:00N 55°16' E 006°39'510.2
2017-Dec-11 06:30N 55°21' E 006°37'5 9.8
2017-Dec-11 06:00N 55°25' E 006°35'183 9.8
2017-Dec-10 11:22N 57°47' E 010°06'411.4
2017-Dec-10 10:59N 57°48' E 010°15'510.9
2017-Dec-10 10:30N 57°48' E 010°25'510.5
2017-Dec-10 10:00N 57°48' E 010°34'510.1
2017-Dec-10 09:30N 57°47' E 010°43'5 9.7
2017-Dec-10 09:00N 57°42' E 010°44'4 8.0
2017-Dec-10 08:30N 57°38' E 010°40'0 0.5
2017-Dec-10 08:00N 57°39' E 010°40'0 0.1
2017-Dec-10 07:30N 57°39' E 010°40'0 0.0
2017-Dec-10 07:00N 57°39' E 010°40'0 0.0
2017-Dec-10 06:30N 57°39' E 010°40'0 0.0
2017-Dec-10 05:57N 57°39' E 010°40'0 0.0
2017-Dec-10 05:24N 57°39' E 010°40'0 0.0
2017-Dec-10 05:00N 57°39' E 010°40'0 0.0
2017-Dec-10 04:30N 57°39' E 010°40'0 0.0
2017-Dec-10 04:00N 57°39' E 010°40'0 0.0
2017-Dec-10 03:30N 57°39' E 010°40'0 0.2
2017-Dec-10 03:01N 57°39' E 010°40'1 2.0
2017-Dec-10 02:30N 57°38' E 010°42'3 6.8
2017-Dec-10 02:00N 57°37' E 010°47'510.2
2017-Dec-10 01:30N 57°36' E 010°56'510.7
2017-Dec-10 01:00N 57°34' E 011°06'611.1
2017-Dec-10 00:31N 57°31' E 011°15'510.7
2017-Dec-10 00:00N 57°29' E 011°24'510.5
2017-Dec-09 23:30N 57°24' E 011°28'510.8
2017-Dec-09 23:00N 57°19' E 011°32'510.8
2017-Dec-09 22:30N 57°14' E 011°35'511.0
2017-Dec-09 22:00N 57°09' E 011°38'510.9
2017-Dec-09 21:30N 57°04' E 011°42'510.5
2017-Dec-09 21:00N 56°59' E 011°45'103 9.3
2017-Dec-09 09:59N 55°19' E 011°02'5 9.8
2017-Dec-09 09:30N 55°15' E 011°06'4 8.8
2017-Dec-09 09:00N 55°10' E 011°03'5 9.5
2017-Dec-09 08:30N 55°06' E 010°59'5 9.6
2017-Dec-09 08:00N 55°01' E 010°60'5 9.3
2017-Dec-09 07:30N 54°57' E 010°56'5 9.2
2017-Dec-09 07:00N 54°53' E 010°51'4 8.8
2017-Dec-09 06:30N 54°49' E 010°50'5 9.6
2017-Dec-09 06:00N 54°45' E 010°47'5 9.4
2017-Dec-09 05:30N 54°40' E 010°46'5 9.4
2017-Dec-09 05:01N 54°38' E 010°54'4 8.6
2017-Dec-09 04:30N 54°36' E 011°01'4 8.3
2017-Dec-09 04:00N 54°36' E 011°08'4 7.3
2017-Dec-09 03:30N 54°35' E 011°14'5 9.4
2017-Dec-09 03:00N 54°33' E 011°21'5 9.8
2017-Dec-09 02:30N 54°31' E 011°29'5 9.5
2017-Dec-09 02:01N 54°29' E 011°36'5 9.7
2017-Dec-09 01:30N 54°27' E 011°44'5 9.6
2017-Dec-09 01:00N 54°26' E 011°52'9 9.2
2017-Dec-09 00:00N 54°27' E 012°08'4 7.7
2017-Dec-08 23:30N 54°29' E 012°13'4 9.0
2017-Dec-08 23:00N 54°33' E 012°15'4 7.8
2017-Dec-08 22:30N 54°37' E 012°19'59 9.0
2017-Dec-08 15:57N 55°02' E 013°51'510.3
2017-Dec-08 15:25N 55°04' E 014°00'410.3
2017-Dec-08 15:00N 55°06' E 014°07'510.5
2017-Dec-08 14:30N 55°09' E 014°13'610.9
2017-Dec-08 13:58N 55°14' E 014°20'511.1
2017-Dec-08 13:30N 55°18' E 014°25'611.0
2017-Dec-08 13:00N 55°22' E 014°31'510.8
2017-Dec-08 12:30N 55°26' E 014°38'510.5
2017-Dec-08 12:00N 55°29' E 014°46'610.5
2017-Dec-08 11:29N 55°32' E 014°54'510.5
2017-Dec-08 11:00N 55°34' E 015°02'510.5
2017-Dec-08 10:30N 55°36' E 015°10'510.5
2017-Dec-08 10:01N 55°38' E 015°19'510.3
2017-Dec-08 09:30N 55°40' E 015°27'510.4
2017-Dec-08 09:00N 55°41' E 015°37'510.6
2017-Dec-08 08:30N 55°42' E 015°46'510.5
2017-Dec-08 08:00N 55°44' E 015°55'510.4
2017-Dec-08 07:30N 55°45' E 016°04'510.5
2017-Dec-08 07:01N 55°46' E 016°13'510.6
2017-Dec-08 06:30N 55°47' E 016°22'510.5
2017-Dec-08 06:00N 55°48' E 016°31'510.6
2017-Dec-08 05:30N 55°50' E 016°40'305 9.8
2017-Dec-06 22:25N 59°35' E 023°06'511.6
2017-Dec-06 22:00N 59°36' E 023°15'611.6
2017-Dec-06 21:31N 59°38' E 023°26'611.5
2017-Dec-06 21:00N 59°39' E 023°37'  
Track history (hours):
 
Tides and Currents Weather Stations Pressure Air Temp Water Temp Dewpoint Dewpoint Depression Visibility Wind Speed Wind Dir Waves Ship Positions

Key Light

Last reported at 2017-Dec-16 20:57 UTC. Time now 2017-Dec-17 04:24 UTC.
Position N 55°48' E 016°49'.

Length 229 m; draft 7.5 m.

Type: Cargo ship. MMSI: 357152000.

Date/timePositionNaut miles runAvg speedWind from/ knotsBaromVisibWave heightAir tempDewpointWater temp
2017-Dec-16 20:57N 55°48' E 016°49'614.1
2017-Dec-16 20:30N 55°46' E 016°38'714.1
2017-Dec-16 20:00N 55°44' E 016°26'714.1
2017-Dec-16 19:30N 55°43' E 016°14'714.2
2017-Dec-16 19:00N 55°41' E 016°02'714.0
2017-Dec-16 18:30N 55°39' E 015°50'714.1
2017-Dec-16 18:00N 55°37' E 015°38'714.2
2017-Dec-16 17:30N 55°35' E 015°26'714.3
2017-Dec-16 17:00N 55°33' E 015°14'714.4
2017-Dec-16 16:30N 55°30' E 015°02'814.3
2017-Dec-16 15:58N 55°27' E 014°49'714.3
2017-Dec-16 15:30N 55°24' E 014°39'714.0
2017-Dec-16 15:00N 55°19' E 014°31'713.7
2017-Dec-16 14:30N 55°14' E 014°23'713.4
2017-Dec-16 14:01N 55°09' E 014°14'1014.7
2017-Dec-16 13:20N 55°10' E 013°57'1114.8
2017-Dec-16 12:36N 55°11' E 013°38'115.2
2017-Dec-16 12:30N 55°12' E 013°36'815.1
2017-Dec-16 12:00N 55°12' E 013°23'714.5
2017-Dec-16 11:30N 55°13' E 013°10'714.2
2017-Dec-16 11:00N 55°14' E 012°57'714.6
2017-Dec-16 10:30N 55°16' E 012°45'612.1
2017-Dec-16 10:00N 55°21' E 012°39'713.3
2017-Dec-16 09:30N 55°28' E 012°41'510.2
2017-Dec-16 09:00N 55°33' E 012°42'5 9.2
2017-Dec-16 08:30N 55°37' E 012°42'510.6
2017-Dec-16 08:00N 55°42' E 012°41'713.6
2017-Dec-16 07:31N 55°49' E 012°42'713.8
2017-Dec-16 07:00N 55°56' E 012°39'713.6
2017-Dec-16 06:31N 56°03' E 012°39'510.5
2017-Dec-16 06:01N 56°06' E 012°32'510.9
2017-Dec-16 05:31N 56°10' E 012°24'3 6.9
2017-Dec-16 05:01N 56°12' E 012°19'3 6.1
2017-Dec-16 04:31N 56°13' E 012°15'3 6.1
2017-Dec-16 04:00N 56°15' E 012°10'3 5.9
2017-Dec-16 03:30N 56°17' E 012°06'3313.7
2017-Dec-16 01:05N 56°49' E 011°50'414.3
2017-Dec-16 00:49N 56°53' E 011°48'414.0
2017-Dec-16 00:30N 56°57' E 011°46'713.9
2017-Dec-16 00:00N 57°03' E 011°41'713.8
2017-Dec-15 23:30N 57°10' E 011°37'714.0
2017-Dec-15 23:01N 57°16' E 011°31'713.8
2017-Dec-15 22:30N 57°22' E 011°27'713.5
2017-Dec-15 22:00N 57°29' E 011°22'713.7
2017-Dec-15 21:30N 57°33' E 011°13'714.2
2017-Dec-15 21:00N 57°38' E 011°03'714.2
2017-Dec-15 20:30N 57°43' E 010°53'713.9
2017-Dec-15 20:00N 57°47' E 010°42'815.0
2017-Dec-15 19:30N 57°46' E 010°28'715.0
2017-Dec-15 19:00N 57°45' E 010°14'14014.0
2017-Dec-15 09:02N 55°57' E 007°32'013.9
2017-Dec-15 09:00N 55°56' E 007°32'714.0
2017-Dec-15 08:30N 55°50' E 007°27'714.3
2017-Dec-15 08:00N 55°43' E 007°23'714.3
2017-Dec-15 07:31N 55°36' E 007°22'714.4
2017-Dec-15 07:00N 55°29' E 007°24'713.8
2017-Dec-15 06:30N 55°22' E 007°27'713.6
2017-Dec-15 06:00N 55°15' E 007°28'713.6
2017-Dec-15 05:30N 55°09' E 007°29'713.7
2017-Dec-15 05:01N 55°02' E 007°30'713.9
2017-Dec-15 04:31N 54°55' E 007°31'714.0
2017-Dec-15 04:00N 54°48' E 007°32'4213.9
2017-Dec-15 01:00N 54°07' E 007°49'714.2
2017-Dec-15 00:30N 54°05' E 007°60'8 1.3
2017-Dec-14 18:30N 54°02' E 008°12'0 0.0
2017-Dec-14 18:00N 54°02' E 008°12'0 0.1
2017-Dec-14 17:30N 54°02' E 008°12'1 2.5
2017-Dec-14 17:00N 54°02' E 008°14'3 6.7
2017-Dec-14 16:30N 53°60' E 008°19'612.9
2017-Dec-14 16:00N 53°59' E 008°30'1313.2
2017-Dec-14 15:00N 53°51' E 008°47'816.1
2017-Dec-14 14:30N 53°51' E 009°01'612.6
2017-Dec-14 14:00N 53°53' E 009°11'612.2
2017-Dec-14 13:30N 53°50' E 009°21'612.6
2017-Dec-14 13:00N 53°45' E 009°25'611.1
2017-Dec-14 12:30N 53°40' E 009°31'510.0
2017-Dec-14 12:00N 53°36' E 009°36'4 8.3
2017-Dec-14 11:30N 53°34' E 009°42'5 9.1
2017-Dec-14 11:00N 53°33' E 009°49'4 7.1
2017-Dec-14 10:31N 53°33' E 009°55'2 3.4
2017-Dec-14 10:00N 53°31' E 009°56'0 0.1
2017-Dec-14 09:29N 53°31' E 009°56'0 0.0
2017-Dec-14 08:59N 53°31' E 009°56'0 0.0
2017-Dec-14 08:29N 53°31' E 009°56'0 0.0
2017-Dec-14 07:59N 53°31' E 009°56'0 0.0
2017-Dec-14 07:29N 53°31' E 009°56'0 0.0
2017-Dec-14 06:59N 53°31' E 009°56'0 0.0
2017-Dec-14 06:29N 53°31' E 009°56'0 0.0
2017-Dec-14 05:59N 53°31' E 009°56'0 0.0
2017-Dec-14 05:29N 53°31' E 009°56'0 0.0
2017-Dec-14 04:59N 53°31' E 009°56'0 0.0
2017-Dec-14 04:29N 53°31' E 009°56'0 0.0
2017-Dec-14 03:59N 53°31' E 009°56'0 0.0
2017-Dec-14 03:29N 53°31' E 009°56'0 0.0
2017-Dec-14 02:59N 53°31' E 009°56'0 0.0
2017-Dec-14 02:29N 53°31' E 009°56'0 0.0
2017-Dec-14 01:59N 53°31' E 009°56'0 0.0
2017-Dec-14 01:29N 53°31' E 009°56'0 0.0
2017-Dec-14 00:59N 53°31' E 009°56'0 0.0
2017-Dec-14 00:29N 53°31' E 009°56'0 0.0
2017-Dec-13 23:59N 53°31' E 009°56'0 0.0
2017-Dec-13 23:29N 53°31' E 009°56'0 0.0
2017-Dec-13 22:59N 53°31' E 009°56'0 0.0
2017-Dec-13 22:29N 53°31' E 009°56'0 0.0
2017-Dec-13 21:59N 53°31' E 009°56'0 0.0
2017-Dec-13 21:29N 53°31' E 009°56'0 0.0
2017-Dec-13 20:59N 53°31' E 009°56'0 0.0
2017-Dec-13 20:29N 53°31' E 009°56'0 0.0
2017-Dec-13 19:59N 53°31' E 009°56'0 0.0
2017-Dec-13 19:29N 53°31' E 009°56'0 0.0
2017-Dec-13 18:59N 53°31' E 009°56'0 0.0
2017-Dec-13 18:29N 53°31' E 009°56'0 0.0
2017-Dec-13 17:59N 53°31' E 009°56'0 0.0
2017-Dec-13 17:29N 53°31' E 009°56'0 0.0
2017-Dec-13 16:59N 53°31' E 009°56'0 0.0
2017-Dec-13 16:29N 53°31' E 009°56'0 0.0
2017-Dec-13 15:59N 53°31' E 009°56'0 0.0
2017-Dec-13 15:29N 53°31' E 009°56'0 0.0
2017-Dec-13 14:59N 53°31' E 009°56'0 0.0
2017-Dec-13 14:29N 53°31' E 009°56'0 0.0
2017-Dec-13 13:59N 53°31' E 009°56'0 0.0
2017-Dec-13 13:29N 53°31' E 009°56'0 0.0
2017-Dec-13 12:59N 53°31' E 009°56'0 0.0
2017-Dec-13 12:29N 53°31' E 009°56'0 0.0
2017-Dec-13 11:59N 53°31' E 009°56'0 0.0
2017-Dec-13 11:29N 53°31' E 009°56'0 0.0
2017-Dec-13 10:59N 53°31' E 009°56'0 0.0
2017-Dec-13 10:29N 53°31' E 009°56'0 0.0
2017-Dec-13 09:59N 53°31' E 009°56'0 0.0
2017-Dec-13 09:29N 53°31' E 009°56'0 0.0
2017-Dec-13 08:59N 53°31' E 009°56'0 0.0
2017-Dec-13 08:29N 53°31' E 009°56'0 0.0
2017-Dec-13 07:59N 53°31' E 009°56'0 0.0
2017-Dec-13 07:29N 53°31' E 009°56'0 0.0
2017-Dec-13 06:59N 53°31' E 009°56'0 0.0
2017-Dec-13 06:29N 53°31' E 009°56'0 0.0
2017-Dec-13 05:59N 53°31' E 009°56'0 0.0
2017-Dec-13 05:29N 53°31' E 009°56'0 0.0
2017-Dec-13 04:59N 53°31' E 009°56'0 0.0
2017-Dec-13 04:29N 53°31' E 009°56'0 0.0
2017-Dec-13 03:59N 53°31' E 009°56'0 0.0
2017-Dec-13 03:29N 53°31' E 009°56'0 0.0
2017-Dec-13 02:59N 53°31' E 009°56'0 0.0
2017-Dec-13 02:29N 53°31' E 009°56'0 0.0
2017-Dec-13 01:59N 53°31' E 009°56'0 0.0
2017-Dec-13 01:29N 53°31' E 009°56'0 0.0
2017-Dec-13 00:59N 53°31' E 009°56'0 0.0
2017-Dec-13 00:29N 53°31' E 009°56'0 0.0
2017-Dec-12 23:59N 53°31' E 009°56'0 0.0
2017-Dec-12 23:29N 53°31' E 009°56'0 0.0
2017-Dec-12 22:59N 53°31' E 009°56'0 0.0
2017-Dec-12 22:29N 53°31' E 009°56'0 0.0
2017-Dec-12 21:59N 53°31' E 009°56'0 0.0
2017-Dec-12 21:29N 53°31' E 009°56'0 0.0
2017-Dec-12 20:59N 53°31' E 009°56'0 0.0
2017-Dec-12 20:29N 53°31' E 009°56'0 0.0
2017-Dec-12 19:59N 53°31' E 009°56'0 0.0
2017-Dec-12 19:29N 53°31' E 009°56'0 0.0
2017-Dec-12 18:59N 53°31' E 009°56'0 0.0
2017-Dec-12 18:29N 53°31' E 009°56'0 0.0
2017-Dec-12 17:59N 53°31' E 009°56'0 0.0
2017-Dec-12 17:29N 53°31' E 009°56'0 0.0
2017-Dec-12 16:59N 53°31' E 009°56'0 0.0
2017-Dec-12 16:29N 53°31' E 009°56'0 0.0
2017-Dec-12 15:59N 53°31' E 009°56'0 0.0
2017-Dec-12 15:29N 53°31' E 009°56'0 0.0
2017-Dec-12 14:59N 53°31' E 009°56'0 0.0
2017-Dec-12 14:29N 53°31' E 009°56'0 0.0
2017-Dec-12 13:59N 53°31' E 009°56'0 0.0
2017-Dec-12 13:29N 53°31' E 009°56'0 0.0
2017-Dec-12 12:59N 53°31' E 009°56'0 0.0
2017-Dec-12 12:29N 53°31' E 009°56'0 0.0
2017-Dec-12 11:59N 53°31' E 009°56'0 0.0
2017-Dec-12 11:29N 53°31' E 009°56'0 0.0
2017-Dec-12 10:59N 53°31' E 009°56'0 0.0
2017-Dec-12 10:29N 53°31' E 009°56'0 0.0
2017-Dec-12 09:59N 53°31' E 009°56'1 1.4
2017-Dec-12 09:30N 53°32' E 009°56'2 4.9
2017-Dec-12 09:00N 53°33' E 009°53'4 8.1
2017-Dec-12 08:31N 53°34' E 009°46'611.7
2017-Dec-12 08:01N 53°35' E 009°37'612.0
2017-Dec-12 07:31N 53°40' E 009°31'611.6
2017-Dec-12 07:00N 53°45' E 009°25'611.3
2017-Dec-12 06:30N 53°50' E 009°21'611.4
2017-Dec-12 06:00N 53°53' E 009°13'510.9
2017-Dec-12 05:30N 53°52' E 009°03'612.6
2017-Dec-12 05:00N 53°50' E 008°53'612.8
2017-Dec-12 04:30N 53°53' E 008°43'713.5
2017-Dec-12 04:00N 53°58' E 008°35'713.5
2017-Dec-12 03:30N 53°59' E 008°24'612.4
2017-Dec-12 03:00N 53°60' E 008°13'611.3
2017-Dec-12 02:30N 53°59' E 008°04'4 7.2
2017-Dec-12 02:00N 53°59' E 007°58'0 0.9
2017-Dec-12 01:30N 53°60' E 007°58'0 0.6
2017-Dec-12 01:00N 54°00' E 007°57'2 4.0
2017-Dec-12 00:30N 54°02' E 007°55'4 7.1
2017-Dec-12 00:00N 54°04' E 007°50'4 5.5
2017-Dec-11 23:21N 54°04' E 007°44'0 0.0
2017-Dec-11 20:46N 54°04' E 007°44'0 0.0
2017-Dec-11 15:58N 54°04' E 007°44'2 3.7
2017-Dec-11 15:30N 54°05' E 007°42'34 8.3
2017-Dec-11 11:21N 54°33' E 007°07'511.0
2017-Dec-11 10:53N 54°37' E 007°03'410.9
2017-Dec-11 10:30N 54°41' E 007°00'510.7
2017-Dec-11 10:00N 54°46' E 006°56'510.6
2017-Dec-11 09:30N 54°51' E 006°52'510.5
2017-Dec-11 09:00N 54°56' E 006°49'510.5
2017-Dec-11 08:30N 55°01' E 006°47'510.5
2017-Dec-11 08:00N 55°06' E 006°44'510.4
2017-Dec-11 07:30N 55°11' E 006°42'510.3
2017-Dec-11 07:00N 55°16' E 006°39'510.2
2017-Dec-11 06:30N 55°21' E 006°37'5 9.8
2017-Dec-11 06:00N 55°25' E 006°35'183 9.8
2017-Dec-10 11:22N 57°47' E 010°06'411.4
2017-Dec-10 10:59N 57°48' E 010°15'510.9
2017-Dec-10 10:30N 57°48' E 010°25'510.5
2017-Dec-10 10:00N 57°48' E 010°34'510.1
2017-Dec-10 09:30N 57°47' E 010°43'5 9.7
2017-Dec-10 09:00N 57°42' E 010°44'4 8.0
2017-Dec-10 08:30N 57°38' E 010°40'0 0.5
2017-Dec-10 08:00N 57°39' E 010°40'0 0.1
2017-Dec-10 07:30N 57°39' E 010°40'0 0.0
2017-Dec-10 07:00N 57°39' E 010°40'0 0.0
2017-Dec-10 06:30N 57°39' E 010°40'0 0.0
2017-Dec-10 05:57N 57°39' E 010°40'0 0.0
2017-Dec-10 05:24N 57°39' E 010°40'0 0.0
2017-Dec-10 05:00N 57°39' E 010°40'0 0.0
2017-Dec-10 04:30N 57°39' E 010°40'0 0.0
2017-Dec-10 04:00N 57°39' E 010°40'0 0.0
2017-Dec-10 03:30N 57°39' E 010°40'0 0.2
2017-Dec-10 03:01N 57°39' E 010°40'1 2.0
2017-Dec-10 02:30N 57°38' E 010°42'3 6.8
2017-Dec-10 02:00N 57°37' E 010°47'510.2
2017-Dec-10 01:30N 57°36' E 010°56'510.7
2017-Dec-10 01:00N 57°34' E 011°06'611.1
2017-Dec-10 00:31N 57°31' E 011°15'510.7
2017-Dec-10 00:00N 57°29' E 011°24'510.5
2017-Dec-09 23:30N 57°24' E 011°28'510.8
2017-Dec-09 23:00N 57°19' E 011°32'510.8
2017-Dec-09 22:30N 57°14' E 011°35'511.0
2017-Dec-09 22:00N 57°09' E 011°38'510.9
2017-Dec-09 21:30N 57°04' E 011°42'510.5
2017-Dec-09 21:00N 56°59' E 011°45'103 9.3
2017-Dec-09 09:59N 55°19' E 011°02'5 9.8
2017-Dec-09 09:30N 55°15' E 011°06'4 8.8
2017-Dec-09 09:00N 55°10' E 011°03'5 9.5
2017-Dec-09 08:30N 55°06' E 010°59'5 9.6
2017-Dec-09 08:00N 55°01' E 010°60'5 9.3
2017-Dec-09 07:30N 54°57' E 010°56'5 9.2
2017-Dec-09 07:00N 54°53' E 010°51'4 8.8
2017-Dec-09 06:30N 54°49' E 010°50'5 9.6
2017-Dec-09 06:00N 54°45' E 010°47'5 9.4
2017-Dec-09 05:30N 54°40' E 010°46'5 9.4
2017-Dec-09 05:01N 54°38' E 010°54'4 8.6
2017-Dec-09 04:30N 54°36' E 011°01'4 8.3
2017-Dec-09 04:00N 54°36' E 011°08'4 7.3
2017-Dec-09 03:30N 54°35' E 011°14'5 9.4
2017-Dec-09 03:00N 54°33' E 011°21'5 9.8
2017-Dec-09 02:30N 54°31' E 011°29'5 9.5
2017-Dec-09 02:01N 54°29' E 011°36'5 9.7
2017-Dec-09 01:30N 54°27' E 011°44'5 9.6
2017-Dec-09 01:00N 54°26' E 011°52'9 9.2
2017-Dec-09 00:00N 54°27' E 012°08'4 7.7
2017-Dec-08 23:30N 54°29' E 012°13'4 9.0
2017-Dec-08 23:00N 54°33' E 012°15'4 7.8
2017-Dec-08 22:30N 54°37' E 012°19'59 9.0
2017-Dec-08 15:57N 55°02' E 013°51'510.3
2017-Dec-08 15:25N 55°04' E 014°00'410.3
2017-Dec-08 15:00N 55°06' E 014°07'510.5
2017-Dec-08 14:30N 55°09' E 014°13'610.9
2017-Dec-08 13:58N 55°14' E 014°20'511.1
2017-Dec-08 13:30N 55°18' E 014°25'611.0
2017-Dec-08 13:00N 55°22' E 014°31'510.8
2017-Dec-08 12:30N 55°26' E 014°38'510.5
2017-Dec-08 12:00N 55°29' E 014°46'610.5
2017-Dec-08 11:29N 55°32' E 014°54'510.5
2017-Dec-08 11:00N 55°34' E 015°02'510.5
2017-Dec-08 10:30N 55°36' E 015°10'510.5
2017-Dec-08 10:01N 55°38' E 015°19'510.3
2017-Dec-08 09:30N 55°40' E 015°27'510.4
2017-Dec-08 09:00N 55°41' E 015°37'510.6
2017-Dec-08 08:30N 55°42' E 015°46'510.5
2017-Dec-08 08:00N 55°44' E 015°55'510.4
2017-Dec-08 07:30N 55°45' E 016°04'510.5
2017-Dec-08 07:01N 55°46' E 016°13'510.6
2017-Dec-08 06:30N 55°47' E 016°22'510.5
2017-Dec-08 06:00N 55°48' E 016°31'510.6
2017-Dec-08 05:30N 55°50' E 016°40'305 9.8
2017-Dec-06 22:25N 59°35' E 023°06'511.6
2017-Dec-06 22:00N 59°36' E 023°15'611.6
2017-Dec-06 21:31N 59°38' E 023°26'611.5
2017-Dec-06 21:00N 59°39' E 023°37'  

Dump ship's entire track history